Terminal Aerodrome Forecast
Issued by NWS

Current Version | Previous Version | Graphics & Text | Print | Product List | Glossary On
Versions: 1 2 3 4 5 6 7 8 9 10 11 12 13 14 15 16 17 18 19 20 21 22 23 24 25 26
000
FTUS41 KRLX 270300 AAB
TAFCKB
TAF AMD
KCKB 270358Z 2704/2724 VRB03KT P6SM VCTS SCT045CB BKN090
      TEMPO 2704/2706 4SM TSRA BR BKN035CB
     FM270600 VRB03KT P6SM VCTS SCT040CB BKN060
      TEMPO 2706/2710 2SM TSRA BR BKN025CB
     FM271000 VRB03KT P6SM SCT040 BKN100
     FM271500 21007KT P6SM SCT035
     FM271900 22008G16KT P6SM +TSRA SCT045CB BKN100=

USA.gov is the U.S. government's official web portal to all federal, state and local government web resources and services.